Terminal Aerodrome Forecast
Issued by NWS

Current Version | Previous Version | Text Only | Print | Product List | Glossary On
Versions: 1 2 3 4 5 6 7 8 9 10 11 12 13 14 15 16 17 18 19 20 21 22 23 24 25 26 27 28 29 30 31 32 33 34 35 36 37 38 39
000
FTUS45 KGJT 181140
TAFRIL
TAF
KRIL 181140Z 1812/1912 00000KT 3SM BR OVC003
      TEMPO 1812/1815 1SM -SN BR BKN002 OVC008
     FM181500 VRB03KT 5SM -SN BR BKN008 OVC020
     FM181900 27003KT P6SM SCT020 BKN060
     FM190400 19004KT P6SM BKN100=

USA.gov is the U.S. government's official web portal to all federal, state and local government web resources and services.